createdAt,value
2023-04-03T00:00:21.537Z,54.53
2023-04-03T00:02:48.137Z,56.64
2023-04-03T00:05:14.850Z,55.99
2023-04-03T00:07:41.507Z,55.30
2023-04-03T00:10:08.933Z,55.87
2023-04-03T00:12:35.665Z,55.37
2023-04-03T00:15:02.135Z,55.13
2023-04-03T00:17:28.709Z,54.99
2023-04-03T00:19:55.188Z,55.16
2023-04-03T00:22:21.778Z,54.51
2023-04-03T00:24:48.248Z,53.85
2023-04-03T00:27:14.755Z,53.68
2023-04-03T00:29:41.226Z,53.70
2023-04-03T00:32:07.756Z,53.50
2023-04-03T00:34:34.370Z,52.93
2023-04-03T00:37:00.985Z,52.49
2023-04-03T00:39:28.309Z,52.44
2023-04-03T00:41:54.836Z,52.03
2023-04-03T00:44:36.565Z,52.13
2023-04-03T00:47:05.362Z,52.69
2023-04-03T00:49:32.064Z,51.80
2023-04-03T00:51:59.260Z,51.63
2023-04-03T00:54:26.786Z,52.64
2023-04-03T00:56:54.638Z,52.35
2023-04-03T00:59:32.345Z,53.55
2023-04-03T01:02:00.242Z,53.85
2023-04-03T01:04:40.432Z,54.55
2023-04-03T01:07:10.455Z,53.95
2023-04-03T01:09:37.816Z,53.58
2023-04-03T01:12:31.324Z,54.90
2023-04-03T01:15:00.562Z,53.45
2023-04-03T01:17:36.262Z,53.57
2023-04-03T01:20:35.993Z,53.00
2023-04-03T01:23:14.539Z,53.04
2023-04-03T01:25:45.780Z,53.30
2023-04-03T01:28:16.491Z,53.50
2023-04-03T01:31:06.303Z,53.10
2023-04-03T01:33:32.893Z,52.82
2023-04-03T01:35:59.470Z,52.42
2023-04-03T01:38:26.587Z,52.33
2023-04-03T01:40:53.073Z,52.18
2023-04-03T01:43:19.580Z,52.25
2023-04-03T01:45:47.409Z,51.76
2023-04-03T01:48:14.444Z,52.04
2023-04-03T01:50:41.013Z,51.78
2023-04-03T01:53:07.539Z,52.27
2023-04-03T01:55:34.080Z,51.80
2023-04-03T01:58:00.619Z,51.50
2023-04-03T02:00:27.655Z,52.03
2023-04-03T02:02:54.438Z,52.21
2023-04-03T02:05:21.079Z,52.56
2023-04-03T02:07:47.785Z,52.96
2023-04-03T02:10:14.461Z,52.76
2023-04-03T02:12:41.263Z,53.03
2023-04-03T02:15:08.251Z,53.19
2023-04-03T02:17:37.606Z,52.47
2023-04-03T02:20:05.027Z,52.15
2023-04-03T02:22:31.817Z,51.93
2023-04-03T02:24:58.366Z,51.89
2023-04-03T02:27:25.267Z,52.22
2023-04-03T02:29:51.722Z,52.01
2023-04-03T02:32:18.253Z,51.73
2023-04-03T02:34:44.796Z,51.68
2023-04-03T02:37:11.333Z,52.65
2023-04-03T02:39:38.099Z,52.55
2023-04-03T02:42:04.853Z,52.51
2023-04-03T02:44:31.688Z,52.82
2023-04-03T02:46:58.220Z,52.56
2023-04-03T02:49:24.944Z,52.43
2023-04-03T02:51:52.239Z,52.94
2023-04-03T02:54:18.852Z,52.54
2023-04-03T02:56:45.448Z,51.66
2023-04-03T02:59:11.957Z,51.75
2023-04-03T03:01:38.614Z,51.47
2023-04-03T03:04:05.319Z,51.65
2023-04-03T03:06:31.794Z,51.19
2023-04-03T03:08:58.256Z,50.94
2023-04-03T03:11:24.783Z,50.58
2023-04-03T03:13:51.528Z,50.76
2023-04-03T03:16:18.339Z,50.74
2023-04-03T03:18:44.848Z,50.96
2023-04-03T03:21:11.821Z,50.86
2023-04-03T03:23:38.431Z,51.34
2023-04-03T03:26:07.817Z,51.10
2023-04-03T03:28:34.501Z,51.73
2023-04-03T03:31:02.070Z,51.77
2023-04-03T03:33:28.730Z,52.28
2023-04-03T03:35:55.682Z,53.04
2023-04-03T03:38:22.982Z,53.59
2023-04-03T03:40:49.830Z,53.01
2023-04-03T03:43:16.863Z,53.24
2023-04-03T03:45:43.469Z,53.40
2023-04-03T03:48:09.960Z,52.75
2023-04-03T03:50:36.542Z,53.09
2023-04-03T03:53:03.052Z,52.05
2023-04-03T03:55:29.652Z,52.44
2023-04-03T03:57:56.524Z,52.38
2023-04-03T04:00:23.139Z,53.37
2023-04-03T04:02:49.750Z,52.20
2023-04-03T04:05:16.374Z,52.72
2023-04-03T04:07:43.181Z,52.50
2023-04-03T04:10:10.088Z,51.68
2023-04-03T04:12:36.892Z,51.79
2023-04-03T04:15:04.393Z,51.75
2023-04-03T04:17:31.278Z,51.85
2023-04-03T04:19:57.945Z,51.92
2023-04-03T04:22:24.773Z,51.90
2023-04-03T04:24:51.317Z,52.19
2023-04-03T04:27:17.905Z,52.19
2023-04-03T04:29:44.394Z,52.17
2023-04-03T04:32:11.166Z,51.87
2023-04-03T04:34:37.745Z,51.86
2023-04-03T04:37:04.408Z,52.03
2023-04-03T04:39:31.242Z,51.66
2023-04-03T04:41:57.832Z,51.72
2023-04-03T04:44:24.578Z,51.89
2023-04-03T04:46:51.100Z,52.28
2023-04-03T04:49:18.082Z,52.30
2023-04-03T04:51:51.684Z,52.35
2023-04-03T04:54:19.102Z,51.80
2023-04-03T04:56:45.857Z,51.83
2023-04-03T04:59:12.370Z,51.47
2023-04-03T05:01:39.034Z,52.08
2023-04-03T05:04:05.774Z,51.63
2023-04-03T05:06:32.923Z,51.91
2023-04-03T05:09:00.724Z,51.47
2023-04-03T05:11:27.495Z,51.57
2023-04-03T05:13:53.966Z,51.40
2023-04-03T05:16:20.581Z,51.38
2023-04-03T05:18:47.205Z,51.83
2023-04-03T05:21:13.681Z,51.50
2023-04-03T05:23:40.284Z,51.78
2023-04-03T05:26:06.921Z,51.39
2023-04-03T05:28:33.463Z,51.23
2023-04-03T05:31:00.309Z,51.33
2023-04-03T05:33:27.346Z,51.32
2023-04-03T05:35:55.101Z,52.17
2023-04-03T05:38:21.616Z,52.33
2023-04-03T05:40:48.410Z,52.23
2023-04-03T05:43:15.033Z,52.28
2023-04-03T05:45:41.870Z,51.99
2023-04-03T05:48:08.382Z,52.58
2023-04-03T05:50:34.905Z,52.08
2023-04-03T05:53:03.370Z,52.35
2023-04-03T05:55:29.873Z,53.04
2023-04-03T05:57:56.524Z,52.59
2023-04-03T06:00:23.569Z,52.31
2023-04-03T06:02:50.614Z,52.01
2023-04-03T06:05:17.256Z,52.89
2023-04-03T06:07:45.605Z,52.82
2023-04-03T06:10:13.697Z,53.49
2023-04-03T06:12:40.501Z,53.52
2023-04-03T06:15:09.244Z,53.74
2023-04-03T06:17:36.001Z,53.16
2023-04-03T06:20:03.087Z,53.23
2023-04-03T06:22:30.989Z,53.68
2023-04-03T06:24:58.377Z,53.99
2023-04-03T06:27:25.221Z,54.19
2023-04-03T06:29:51.992Z,54.01
2023-04-03T06:32:18.445Z,53.34
2023-04-03T06:34:44.931Z,52.25
2023-04-03T06:37:23.637Z,52.39
2023-04-03T06:39:50.377Z,52.00
2023-04-03T06:42:17.203Z,52.43
2023-04-03T06:44:43.700Z,52.67
2023-04-03T06:47:17.232Z,52.93
2023-04-03T06:49:44.011Z,53.37
2023-04-03T06:52:10.866Z,52.07
2023-04-03T06:54:37.478Z,52.75
2023-04-03T06:57:04.310Z,53.41
2023-04-03T06:59:31.036Z,51.94
2023-04-03T07:01:57.754Z,52.46
2023-04-03T07:04:24.315Z,52.65
2023-04-03T07:06:51.670Z,53.39
2023-04-03T07:09:18.190Z,52.65
2023-04-03T07:11:44.676Z,52.12
2023-04-03T07:14:11.150Z,52.07
2023-04-03T07:16:39.570Z,51.89
2023-04-03T07:19:09.776Z,51.91
2023-04-03T07:21:36.446Z,50.80
2023-04-03T07:24:03.045Z,50.52
2023-04-03T07:26:30.587Z,51.27
2023-04-03T07:29:05.528Z,52.08
2023-04-03T07:31:32.421Z,50.96
2023-04-03T07:33:59.202Z,50.43
2023-04-03T07:36:26.029Z,51.16
2023-04-03T07:38:52.667Z,50.40
2023-04-03T07:41:21.053Z,49.89
2023-04-03T07:43:48.085Z,49.51
2023-04-03T07:46:15.168Z,49.26
2023-04-03T07:48:41.751Z,48.18
2023-04-03T07:51:08.620Z,48.78
2023-04-03T07:53:35.251Z,48.06
2023-04-03T07:56:03.681Z,47.92
2023-04-03T07:58:30.562Z,47.54
2023-04-03T08:00:57.278Z,47.74
2023-04-03T08:03:23.985Z,46.77
2023-04-03T08:05:51.897Z,46.29
2023-04-03T08:08:21.640Z,46.77
2023-04-03T08:10:53.174Z,46.88
2023-04-03T08:13:20.286Z,46.75
2023-04-03T08:15:47.426Z,46.42
2023-04-03T08:18:15.743Z,47.21
2023-04-03T08:20:42.789Z,46.84
2023-04-03T08:23:09.826Z,47.03
2023-04-03T08:25:41.440Z,46.70
2023-04-03T08:28:08.640Z,47.77
2023-04-03T08:30:35.713Z,46.58
2023-04-03T08:33:03.019Z,45.16
2023-04-03T08:35:30.040Z,44.76
2023-04-03T08:37:57.412Z,44.54
2023-04-03T08:40:25.008Z,44.10
2023-04-03T08:42:57.691Z,43.23
2023-04-03T08:45:54.583Z,43.62
2023-04-03T08:48:24.173Z,43.05
2023-04-03T08:51:16.216Z,43.44
2023-04-03T08:54:03.281Z,42.85
2023-04-03T08:56:31.874Z,41.03
2023-04-03T08:59:02.296Z,40.49
2023-04-03T09:01:33.410Z,40.44
2023-04-03T09:04:02.211Z,40.61
2023-04-03T09:06:33.875Z,39.50
2023-04-03T09:09:36.168Z,39.49
2023-04-03T09:12:44.950Z,38.67
2023-04-03T09:15:37.831Z,37.72
2023-04-03T09:18:25.149Z,36.11
2023-04-03T09:20:57.745Z,35.84
2023-04-03T09:23:30.495Z,35.75
2023-04-03T09:26:05.919Z,35.69
2023-04-03T09:28:49.289Z,35.87
2023-04-03T09:31:23.239Z,35.67
2023-04-03T09:34:01.599Z,36.50
2023-04-03T09:36:52.503Z,34.71
2023-04-03T09:39:22.759Z,32.55
2023-04-03T09:42:12.736Z,28.95
2023-04-03T09:44:39.878Z,23.94
2023-04-03T09:47:31.767Z,19.76
2023-04-03T09:50:14.030Z,17.79
2023-04-03T09:52:43.891Z,16.49
2023-04-03T09:55:19.816Z,17.85
2023-04-03T09:57:47.468Z,15.07
2023-04-03T10:00:27.114Z,14.65
2023-04-03T10:02:56.860Z,12.99
2023-04-03T10:05:38.393Z,12.70
2023-04-03T10:08:13.875Z,13.98
2023-04-03T10:10:46.587Z,14.23
2023-04-03T10:13:21.327Z,14.36
2023-04-03T10:15:58.624Z,14.61
2023-04-03T10:18:54.272Z,12.84
2023-04-03T10:21:32.026Z,13.21
2023-04-03T10:24:09.944Z,13.37
2023-04-03T10:26:36.630Z,11.51
2023-04-03T10:29:18.388Z,14.03
2023-04-03T10:32:10.224Z,13.28
2023-04-03T10:34:39.767Z,12.68
2023-04-03T10:37:27.189Z,11.34
2023-04-03T10:40:33.430Z,11.63
2023-04-03T10:43:14.429Z,12.10
2023-04-03T10:46:13.550Z,10.64
2023-04-03T10:48:46.028Z,11.54
2023-04-03T10:51:44.917Z,12.62
2023-04-03T10:54:21.180Z,12.03
2023-04-03T10:57:04.670Z,11.49
2023-04-03T10:59:51.362Z,12.62
2023-04-03T11:02:40.648Z,11.49
2023-04-03T11:05:15.889Z,11.42
2023-04-03T11:07:47.717Z,12.69
2023-04-03T11:10:20.321Z,13.16
2023-04-03T11:12:54.155Z,12.40
2023-04-03T11:15:22.330Z,12.30
2023-04-03T11:17:58.796Z,12.06
2023-04-03T11:20:33.790Z,11.85
2023-04-03T11:23:15.583Z,13.02
2023-04-03T11:25:45.131Z,13.28
2023-04-03T11:28:15.916Z,13.25
2023-04-03T11:30:58.205Z,12.82
2023-04-03T11:34:03.148Z,12.40
2023-04-03T11:36:37.141Z,12.39
2023-04-03T11:39:20.293Z,13.13
2023-04-03T11:41:48.160Z,11.94
2023-04-03T11:44:47.365Z,10.91
2023-04-03T11:47:49.973Z,11.72
2023-04-03T11:50:34.830Z,12.33
2023-04-03T11:53:07.399Z,10.68
2023-04-03T11:55:34.021Z,11.65
2023-04-03T11:58:03.747Z,10.22
2023-04-03T12:00:47.253Z,12.53
2023-04-03T12:03:30.090Z,14.26
2023-04-03T12:06:17.624Z,15.23
2023-04-03T12:08:49.034Z,14.15
2023-04-03T12:11:22.582Z,12.42
2023-04-03T12:13:50.380Z,11.64
2023-04-03T12:16:30.742Z,12.73
2023-04-03T12:19:04.488Z,13.63
2023-04-03T12:21:31.118Z,15.54
2023-04-03T12:24:09.591Z,19.37
2023-04-03T12:26:51.910Z,21.90
2023-04-03T12:29:42.190Z,23.48
2023-04-03T12:32:36.804Z,25.34
2023-04-03T12:35:22.250Z,26.20
2023-04-03T12:38:16.793Z,27.26
2023-04-03T12:40:43.237Z,28.17
2023-04-03T12:43:14.486Z,27.66
2023-04-03T12:45:44.358Z,28.15
2023-04-03T12:48:19.362Z,27.44
2023-04-03T12:50:47.864Z,27.53
2023-04-03T12:53:20.628Z,28.01
2023-04-03T12:55:47.360Z,28.99
2023-04-03T12:58:17.286Z,27.37
2023-04-03T13:00:43.938Z,28.28
2023-04-03T13:03:27.905Z,28.33
2023-04-03T13:06:01.333Z,28.87
2023-04-03T13:08:27.865Z,28.29
2023-04-03T13:10:59.532Z,28.38
2023-04-03T13:13:27.381Z,27.87
2023-04-03T13:15:55.413Z,28.46
2023-04-03T13:18:23.660Z,28.49
2023-04-03T13:20:51.037Z,28.46
2023-04-03T13:23:19.188Z,29.16
2023-04-03T13:25:46.525Z,29.61
2023-04-03T13:28:16.713Z,28.25
2023-04-03T13:31:17.855Z,28.59
2023-04-03T13:33:54.772Z,28.01
2023-04-03T13:36:29.539Z,27.37
2023-04-03T13:39:05.096Z,28.15
2023-04-03T13:41:36.053Z,28.70
2023-04-03T13:44:24.605Z,28.48
2023-04-03T13:46:53.555Z,28.77
2023-04-03T13:49:32.008Z,29.12
2023-04-03T13:52:07.307Z,27.93
2023-04-03T13:54:40.307Z,28.71
2023-04-03T13:57:16.002Z,27.61
2023-04-03T13:59:44.057Z,27.57
2023-04-03T14:02:40.744Z,27.72
2023-04-03T14:05:09.301Z,27.78
2023-04-03T14:07:36.283Z,27.72
2023-04-03T14:10:02.912Z,27.38
2023-04-03T14:12:42.395Z,27.06
2023-04-03T14:15:21.624Z,28.14
2023-04-03T14:17:48.982Z,28.11
2023-04-03T14:20:17.645Z,29.04
2023-04-03T14:22:44.979Z,29.12
2023-04-03T14:25:11.550Z,29.32
2023-04-03T14:27:41.276Z,29.60
2023-04-03T14:30:14.235Z,30.16
2023-04-03T14:32:41.418Z,29.72
2023-04-03T14:35:08.323Z,29.27
2023-04-03T14:37:34.842Z,30.25
2023-04-03T14:40:04.737Z,29.66
2023-04-03T14:42:34.403Z,29.21
2023-04-03T14:45:09.898Z,29.51
2023-04-03T14:47:42.710Z,28.15
2023-04-03T14:50:14.849Z,28.78
2023-04-03T14:52:42.219Z,29.67
2023-04-03T14:55:09.360Z,28.83
2023-04-03T14:57:37.118Z,29.48
2023-04-03T15:00:05.359Z,28.45
2023-04-03T15:02:33.634Z,29.63
2023-04-03T15:05:03.358Z,29.72
2023-04-03T15:07:32.421Z,29.48
2023-04-03T15:10:02.439Z,29.36
2023-04-03T15:12:28.942Z,28.93
2023-04-03T15:15:01.898Z,28.48
2023-04-03T15:17:29.552Z,28.50
2023-04-03T15:19:56.065Z,29.05
2023-04-03T15:22:22.684Z,30.00
2023-04-03T15:24:49.190Z,29.16
2023-04-03T15:27:16.461Z,29.12
2023-04-03T15:29:43.811Z,29.64
2023-04-03T15:32:10.940Z,28.92
2023-04-03T15:34:37.945Z,29.01
2023-04-03T15:37:04.445Z,29.00
2023-04-03T15:39:31.174Z,29.99
2023-04-03T15:42:00.851Z,29.06
2023-04-03T15:44:27.639Z,28.57
2023-04-03T15:46:56.199Z,28.45
2023-04-03T15:49:23.200Z,29.34
2023-04-03T15:51:49.724Z,29.39
2023-04-03T15:54:16.812Z,30.01
2023-04-03T15:56:43.395Z,29.38
2023-04-03T15:59:10.234Z,29.51
2023-04-03T16:01:38.025Z,30.00
2023-04-03T16:04:05.100Z,30.51
2023-04-03T16:06:32.798Z,30.97
2023-04-03T16:08:59.424Z,30.65
2023-04-03T16:11:27.894Z,30.21
2023-04-03T16:13:57.319Z,31.29
2023-04-03T16:16:24.708Z,31.26
2023-04-03T16:18:51.480Z,30.72
2023-04-03T16:21:18.803Z,31.47
2023-04-03T16:23:45.471Z,31.31
2023-04-03T16:26:12.226Z,30.96
2023-04-03T16:28:38.884Z,30.83
2023-04-03T16:31:06.572Z,30.81
2023-04-03T16:33:33.082Z,31.55
2023-04-03T16:35:59.886Z,30.79
2023-04-03T16:38:26.509Z,31.22
2023-04-03T16:40:58.016Z,31.08
2023-04-03T16:43:24.497Z,31.64
2023-04-03T16:45:51.152Z,31.36
2023-04-03T16:48:18.209Z,31.58
2023-04-03T16:50:54.238Z,31.89
2023-04-03T16:53:25.254Z,32.03
2023-04-03T16:55:52.235Z,31.43
2023-04-03T16:58:18.840Z,31.77
2023-04-03T17:00:45.561Z,32.36
2023-04-03T17:03:12.103Z,32.17
2023-04-03T17:05:38.892Z,32.30
2023-04-03T17:08:05.654Z,32.63
2023-04-03T17:10:32.367Z,32.61
2023-04-03T17:12:58.988Z,34.33
2023-04-03T17:15:26.371Z,33.92
2023-04-03T17:17:53.532Z,32.49
2023-04-03T17:20:20.538Z,32.06
2023-04-03T17:22:47.145Z,32.40
2023-04-03T17:25:14.085Z,32.52
2023-04-03T17:27:40.965Z,32.61
2023-04-03T17:30:08.459Z,32.86
2023-04-03T17:32:35.465Z,34.12
2023-04-03T17:35:01.976Z,33.20
2023-04-03T17:37:28.684Z,33.31
2023-04-03T17:39:55.239Z,33.39
2023-04-03T17:42:22.120Z,33.24
2023-04-03T17:44:48.642Z,33.66
2023-04-03T17:47:15.307Z,33.72
2023-04-03T17:49:42.237Z,33.55
2023-04-03T17:52:08.808Z,33.68
2023-04-03T17:54:35.359Z,33.84
2023-04-03T17:57:03.521Z,34.52
2023-04-03T17:59:30.293Z,34.07
2023-04-03T18:01:57.010Z,33.82
2023-04-03T18:04:24.096Z,34.39
2023-04-03T18:06:52.454Z,34.46
2023-04-03T18:09:26.269Z,34.25
2023-04-03T18:11:53.259Z,34.33
2023-04-03T18:14:22.708Z,34.49
2023-04-03T18:16:49.546Z,34.28
2023-04-03T18:21:47.715Z,34.98
2023-04-03T18:24:16.298Z,34.85
2023-04-03T18:26:44.560Z,35.03
2023-04-03T18:29:11.596Z,35.04
2023-04-03T18:31:41.225Z,35.74
2023-04-03T18:34:07.766Z,35.91
2023-04-03T18:36:35.611Z,37.08
2023-04-03T18:39:02.340Z,35.89
2023-04-03T18:41:31.072Z,36.47
2023-04-03T18:44:00.045Z,36.45
2023-04-03T18:46:26.595Z,36.31
2023-04-03T18:48:54.113Z,36.04
2023-04-03T18:51:21.220Z,36.08
2023-04-03T18:53:47.751Z,36.31
2023-04-03T18:56:14.277Z,36.31
2023-04-03T18:58:40.925Z,36.07
2023-04-03T19:01:07.550Z,36.15
2023-04-03T19:03:35.355Z,36.43
2023-04-03T19:06:02.818Z,36.25
2023-04-03T19:08:30.572Z,36.31
2023-04-03T19:10:57.131Z,36.64
2023-04-03T19:13:23.720Z,36.53
2023-04-03T19:15:52.091Z,36.67
2023-04-03T19:18:18.639Z,36.66
2023-04-03T19:20:45.218Z,36.37
2023-04-03T19:23:13.420Z,36.91
2023-04-03T19:25:41.732Z,36.45
2023-04-03T19:28:08.866Z,36.44
2023-04-03T19:30:38.162Z,36.69
2023-04-03T19:33:04.775Z,36.90
2023-04-03T19:35:31.801Z,36.67
2023-04-03T19:37:58.288Z,36.82
2023-04-03T19:40:25.490Z,37.12
2023-04-03T19:42:52.565Z,37.00
2023-04-03T19:45:19.815Z,36.71
2023-04-03T19:47:47.202Z,36.90
2023-04-03T19:50:13.785Z,36.85
2023-04-03T19:52:40.443Z,36.68
2023-04-03T19:55:07.669Z,36.97
2023-04-03T19:57:34.231Z,37.36
2023-04-03T20:00:01.060Z,37.83
2023-04-03T20:02:27.611Z,38.07
2023-04-03T20:04:54.147Z,37.69
2023-04-03T20:07:21.274Z,37.93
2023-04-03T20:09:47.842Z,37.80
2023-04-03T20:12:14.432Z,37.67
2023-04-03T20:14:43.707Z,37.57
2023-04-03T20:17:10.300Z,38.83
2023-04-03T20:19:36.795Z,38.38
2023-04-03T20:22:03.342Z,38.25
2023-04-03T20:24:30.961Z,38.89
2023-04-03T20:26:58.493Z,38.98
2023-04-03T20:29:26.068Z,39.15
2023-04-03T20:31:55.938Z,39.35
2023-04-03T20:34:22.575Z,39.34
2023-04-03T20:36:50.185Z,38.81
2023-04-03T20:39:21.770Z,38.81
2023-04-03T20:41:48.593Z,38.69
2023-04-03T20:44:17.661Z,38.93
2023-04-03T20:46:53.030Z,38.77
2023-04-03T20:49:21.303Z,38.85
2023-04-03T20:51:48.621Z,39.00
2023-04-03T20:54:15.208Z,38.82
2023-04-03T20:56:42.084Z,38.85
2023-04-03T20:59:10.947Z,38.87
2023-04-03T21:01:37.858Z,39.44
2023-04-03T21:04:38.078Z,40.18
2023-04-03T21:07:43.351Z,40.27
2023-04-03T21:10:47.661Z,40.28
2023-04-03T21:13:51.424Z,40.77
2023-04-03T21:16:18.481Z,40.87
2023-04-03T21:18:57.256Z,40.82
2023-04-03T21:21:26.078Z,40.24
2023-04-03T21:23:54.316Z,40.33
2023-04-03T21:26:21.833Z,40.47
2023-04-03T21:28:52.423Z,40.38
2023-04-03T21:31:22.653Z,40.60
2023-04-03T21:33:49.896Z,40.55
2023-04-03T21:36:16.548Z,40.88
2023-04-03T21:38:45.251Z,41.19
2023-04-03T21:41:11.961Z,41.21
2023-04-03T21:43:38.459Z,41.29
2023-04-03T21:46:08.200Z,41.66
2023-04-03T21:48:36.147Z,41.61
2023-04-03T21:51:04.496Z,41.84
2023-04-03T21:53:31.271Z,41.54
2023-04-03T21:55:57.792Z,41.50
2023-04-03T21:58:31.987Z,42.02
2023-04-03T22:01:12.727Z,42.89
2023-04-03T22:04:13.421Z,43.00
2023-04-03T22:06:39.976Z,42.75
2023-04-03T22:09:06.610Z,42.78
2023-04-03T22:11:33.262Z,42.87
2023-04-03T22:14:00.227Z,43.50
2023-04-03T22:16:27.460Z,43.66
2023-04-03T22:18:54.693Z,43.36
2023-04-03T22:21:21.698Z,43.62
2023-04-03T22:23:48.255Z,43.79
2023-04-03T22:26:14.853Z,44.01
2023-04-03T22:28:44.217Z,44.40
2023-04-03T22:31:14.130Z,44.00
2023-04-03T22:33:41.626Z,44.37
2023-04-03T22:36:11.049Z,44.20
2023-04-03T22:38:39.005Z,44.73
2023-04-03T22:41:07.355Z,44.00
2023-04-03T22:43:35.329Z,44.33
2023-04-03T22:46:03.221Z,44.45
2023-04-03T22:48:30.825Z,44.67
2023-04-03T22:50:57.689Z,44.63
2023-04-03T22:53:24.282Z,44.61
2023-04-03T22:55:56.929Z,44.62
2023-04-03T22:58:26.587Z,44.52
2023-04-03T23:01:03.602Z,44.63
2023-04-03T23:03:30.471Z,44.59
2023-04-03T23:05:57.450Z,44.19
2023-04-03T23:08:24.020Z,44.35
2023-04-03T23:10:54.927Z,44.65
2023-04-03T23:13:21.456Z,44.94
2023-04-03T23:15:59.104Z,44.94
2023-04-03T23:18:30.237Z,45.27
2023-04-03T23:20:58.720Z,44.71
2023-04-03T23:23:25.490Z,44.66
2023-04-03T23:25:57.218Z,44.67
2023-04-03T23:28:24.045Z,44.86
2023-04-03T23:30:51.693Z,44.23
2023-04-03T23:33:18.179Z,44.30
2023-04-03T23:35:46.712Z,44.51
2023-04-03T23:38:13.597Z,45.09
2023-04-03T23:40:41.997Z,45.05
2023-04-03T23:43:08.872Z,44.66
2023-04-03T23:45:36.052Z,44.67
2023-04-03T23:48:02.862Z,45.13
2023-04-03T23:50:29.806Z,45.09
2023-04-03T23:52:56.365Z,45.07
2023-04-03T23:55:23.250Z,45.13
2023-04-03T23:57:49.777Z,45.38
